Terminal Aerodrome Forecast
Issued by NWS Mt. Holly, NJ

Home | Current Version | Previous Version | Text Only | Print | Product List | Glossary On
Versions: 1 2 3 4 5 6 7 8 9 10 11 12 13 14 15 16 17 18 19 20 21 22 23 24
000
FTUS41 KPHI 232300 RRA
TAFPHL
TAF
KPHL 232340Z 2400/2506 16003KT P6SM FEW080 BKN200
     FM240100 14006KT P6SM SCT025 OVC050
     FM240300 12006KT 5SM -RA BR SCT008 OVC020 WS020/17040KT
     FM240600 14010KT 2SM RA BR BKN004 OVC010 WS020/17055KT
     FM240800 17014G24KT 4SM -RA BR OVC005 WS020/20055KT
     FM241400 21014G24KT P6SM -SHRA SCT008 OVC015
     FM241700 21016G28KT P6SM SCT020 BKN050=

USA.gov is the U.S. government's official web portal to all federal, state and local government web resources and services.